Time;durP1;ratioP1;P1;durP2;ratioP2;P2;SDS_P1;SDS_P2;PMS_P1;PMS_P2;Temp;Humidity;BMP_temperature;BMP_pressure;BME280_temperature;BME280_humidity;BME280_pressure;Samples;Min_cycle;Max_cycle;Signal;HPM_P1;HPM_P2
2023/12/28 00:01:22;;;;;;;12.02;3.42;;;;;;;;;;5134511;27;20042;-68
2023/12/28 00:03:48;;;;;;;9.60;3.15;;;;;;;;;;5134048;27;20033;-68
2023/12/28 00:06:13;;;;;;;10.10;3.85;;;;;;;;;;5134063;27;20057;-67
2023/12/28 00:08:39;;;;;;;8.23;3.17;;;;;;;;;;5134376;27;20019;-67
2023/12/28 00:11:04;;;;;;;4.85;2.30;;;;;;;;;;5115739;27;20489;-68
2023/12/28 00:13:30;;;;;;;12.05;4.47;;;;;;;;;;5133884;27;20087;-68
2023/12/28 00:15:55;;;;;;;8.45;3.25;;;;;;;;;;5133985;27;20027;-68
2023/12/28 00:18:21;;;;;;;11.18;4.15;;;;;;;;;;5133799;27;20382;-67
2023/12/28 00:20:46;;;;;;;11.95;3.45;;;;;;;;;;5134047;27;20022;-68
2023/12/28 00:23:11;;;;;;;7.93;2.80;;;;;;;;;;5133908;27;20030;-68
2023/12/28 00:25:37;;;;;;;10.63;3.95;;;;;;;;;;5133922;27;20051;-68
2023/12/28 00:28:02;;;;;;;8.25;3.03;;;;;;;;;;5133711;27;20019;-68
2023/12/28 00:30:28;;;;;;;11.90;4.18;;;;;;;;;;5133728;27;20487;-68
2023/12/28 00:32:53;;;;;;;9.63;3.05;;;;;;;;;;5133960;27;20020;-68
2023/12/28 00:35:19;;;;;;;10.52;4.90;;;;;;;;;;5131626;27;20473;-67
2023/12/28 00:37:45;;;;;;;17.08;4.30;;;;;;;;;;5133647;27;20027;-67
2023/12/28 00:40:10;;;;;;;11.43;3.33;;;;;;;;;;5115616;27;20094;-69
2023/12/28 00:42:36;;;;;;;4.75;2.63;;;;;;;;;;5133448;27;20027;-68
2023/12/28 00:45:02;;;;;;;10.73;4.18;;;;;;;;;;5133209;27;20134;-67
2023/12/28 00:47:27;;;;;;;8.63;4.10;;;;;;;;;;5133573;27;20102;-68
2023/12/28 00:49:53;;;;;;;6.80;3.05;;;;;;;;;;5133640;27;20113;-68
2023/12/28 00:52:18;;;;;;;8.63;4.35;;;;;;;;;;5133232;27;20043;-68
2023/12/28 00:54:44;;;;;;;9.13;3.20;;;;;;;;;;5113423;27;20034;-69
2023/12/28 00:57:09;;;;;;;8.13;3.38;;;;;;;;;;5133034;27;20059;-69
2023/12/28 00:59:36;;;;;;;6.53;3.00;;;;;;;;;;5132469;27;20038;-69
2023/12/28 01:02:01;;;;;;;12.75;3.88;;;;;;;;;;5133378;27;20026;-69
2023/12/28 01:04:27;;;;;;;9.48;3.78;;;;;;;;;;5132058;27;20019;-69
2023/12/28 01:06:52;;;;;;;8.00;3.60;;;;;;;;;;5132145;27;20029;-69
2023/12/28 01:09:19;;;;;;;9.07;4.20;;;;;;;;;;5133085;27;20027;-69
2023/12/28 01:11:44;;;;;;;12.07;3.58;;;;;;;;;;5133266;27;20062;-69
2023/12/28 01:14:10;;;;;;;9.13;3.72;;;;;;;;;;5132935;27;20487;-69
2023/12/28 01:16:35;;;;;;;8.35;3.65;;;;;;;;;;5133377;27;20146;-69
2023/12/28 01:19:01;;;;;;;8.73;3.85;;;;;;;;;;5133227;28;20080;-70
2023/12/28 01:21:28;;;;;;;9.50;3.65;;;;;;;;;;5133258;28;20031;-69
2023/12/28 01:23:54;;;;;;;10.98;4.47;;;;;;;;;;5132986;28;20167;-69
2023/12/28 01:26:19;;;;;;;14.98;4.18;;;;;;;;;;5133334;28;20499;-69
2023/12/28 01:28:45;;;;;;;9.48;4.03;;;;;;;;;;5133364;28;20030;-69
2023/12/28 01:31:13;;;;;;;13.98;4.55;;;;;;;;;;5133129;28;20027;-69
2023/12/28 01:33:39;;;;;;;6.88;3.05;;;;;;;;;;5133229;28;20019;-69
2023/12/28 01:36:21;;;;;;;12.70;4.10;;;;;;;;;;5133247;28;20496;-69
2023/12/28 01:38:46;;;;;;;9.48;4.20;;;;;;;;;;5132698;28;20031;-70
2023/12/28 01:41:13;;;;;;;11.63;3.83;;;;;;;;;;5133087;28;20065;-70
2023/12/28 01:43:39;;;;;;;10.13;4.28;;;;;;;;;;5133081;28;20545;-69
2023/12/28 01:46:06;;;;;;;8.90;3.63;;;;;;;;;;5132759;28;20114;-70
2023/12/28 01:48:32;;;;;;;11.65;3.70;;;;;;;;;;5133167;28;20098;-70
2023/12/28 01:50:58;;;;;;;10.70;4.07;;;;;;;;;;5133048;28;20098;-69
2023/12/28 01:53:24;;;;;;;14.15;4.38;;;;;;;;;;5114146;28;20122;-69
2023/12/28 01:55:49;;;;;;;9.93;4.18;;;;;;;;;;5132985;28;20550;-69
2023/12/28 01:58:15;;;;;;;8.70;4.47;;;;;;;;;;5133120;28;20047;-69
2023/12/28 02:00:42;;;;;;;10.50;4.03;;;;;;;;;;5133093;28;20023;-69
2023/12/28 02:03:08;;;;;;;9.68;3.97;;;;;;;;;;5132805;28;20026;-69
2023/12/28 02:05:34;;;;;;;8.02;3.17;;;;;;;;;;5132850;28;20031;-69
2023/12/28 02:07:59;;;;;;;9.10;4.13;;;;;;;;;;5132703;28;20019;-69
2023/12/28 02:10:24;;;;;;;7.43;3.80;;;;;;;;;;5135018;27;20385;-69
2023/12/28 02:12:52;;;;;;;11.70;4.03;;;;;;;;;;5136766;27;20027;-68
2023/12/28 02:15:18;;;;;;;7.43;3.75;;;;;;;;;;5136449;27;20034;-69
2023/12/28 02:17:56;;;;;;;8.40;4.35;;;;;;;;;;5136665;27;20019;-69
2023/12/28 02:20:23;;;;;;;7.40;3.50;;;;;;;;;;5136830;27;20094;-69
2023/12/28 02:22:49;;;;;;;7.55;3.15;;;;;;;;;;5136616;27;20053;-69
2023/12/28 02:25:15;;;;;;;7.78;3.40;;;;;;;;;;5136423;27;20034;-68
2023/12/28 02:27:44;;;;;;;9.75;3.63;;;;;;;;;;5136631;27;20023;-68
2023/12/28 02:30:11;;;;;;;7.95;3.30;;;;;;;;;;5136382;27;20022;-69
2023/12/28 02:32:58;;;;;;;6.28;3.42;;;;;;;;;;5136426;27;20035;-68
2023/12/28 02:35:35;;;;;;;8.25;3.42;;;;;;;;;;5136196;27;20031;-68
2023/12/28 02:38:11;;;;;;;5.85;3.08;;;;;;;;;;5135869;27;20358;-68
2023/12/28 02:40:38;;;;;;;12.18;3.67;;;;;;;;;;5136480;27;20054;-68
2023/12/28 02:43:08;;;;;;;7.25;3.20;;;;;;;;;;5136140;27;20027;-68
2023/12/28 02:45:34;;;;;;;9.40;4.00;;;;;;;;;;5135869;27;20027;-68
2023/12/28 02:47:59;;;;;;;8.77;3.00;;;;;;;;;;5136169;27;20050;-68
2023/12/28 02:50:25;;;;;;;6.93;3.50;;;;;;;;;;5136022;27;20437;-68
2023/12/28 02:52:50;;;;;;;9.52;3.15;;;;;;;;;;5135625;27;20043;-68
2023/12/28 02:55:16;;;;;;;8.18;3.60;;;;;;;;;;5135759;27;20039;-69
2023/12/28 02:57:43;;;;;;;5.63;3.03;;;;;;;;;;5123248;27;20035;-68
2023/12/28 03:00:08;;;;;;;8.15;2.97;;;;;;;;;;5115450;28;20051;-68
2023/12/28 03:02:36;;;;;;;4.90;2.60;;;;;;;;;;5115207;28;20047;-68
2023/12/28 03:05:02;;;;;;;7.85;3.28;;;;;;;;;;5115242;28;20470;-68
2023/12/28 03:07:27;;;;;;;9.88;3.85;;;;;;;;;;5115026;28;20105;-68
2023/12/28 03:09:56;;;;;;;6.75;3.40;;;;;;;;;;5115169;28;20016;-69
2023/12/28 03:12:22;;;;;;;7.05;3.45;;;;;;;;;;5114997;28;20504;-69
2023/12/28 03:14:47;;;;;;;6.03;3.20;;;;;;;;;;5114989;28;20050;-68
2023/12/28 03:17:13;;;;;;;8.18;3.30;;;;;;;;;;5114721;28;20023;-69
2023/12/28 03:19:39;;;;;;;9.50;3.50;;;;;;;;;;5114817;28;20019;-69
2023/12/28 03:22:04;;;;;;;5.57;2.90;;;;;;;;;;5113795;27;20394;-69
2023/12/28 03:24:30;;;;;;;8.60;3.17;;;;;;;;;;5114790;28;20034;-69
2023/12/28 03:26:55;;;;;;;3.97;2.58;;;;;;;;;;5114809;28;20354;-69
2023/12/28 03:29:21;;;;;;;5.57;3.00;;;;;;;;;;5114677;28;20024;-69
2023/12/28 03:31:46;;;;;;;6.10;3.22;;;;;;;;;;5130897;27;20034;-69
2023/12/28 03:34:12;;;;;;;6.15;2.63;;;;;;;;;;5135286;27;20381;-68
2023/12/28 03:36:37;;;;;;;6.57;3.03;;;;;;;;;;5135071;27;20477;-68
2023/12/28 03:39:06;;;;;;;4.78;2.95;;;;;;;;;;5134591;27;20058;-68
2023/12/28 03:41:31;;;;;;;6.57;3.20;;;;;;;;;;5135042;27;20027;-68
2023/12/28 03:43:57;;;;;;;6.45;2.50;;;;;;;;;;5134928;27;20098;-68
2023/12/28 03:46:22;;;;;;;7.50;2.50;;;;;;;;;;5134758;27;20034;-68
2023/12/28 03:48:48;;;;;;;4.82;2.55;;;;;;;;;;5135040;27;20027;-69
2023/12/28 03:51:15;;;;;;;7.88;3.00;;;;;;;;;;5134785;27;20135;-68
2023/12/28 03:53:41;;;;;;;5.78;2.67;;;;;;;;;;5134557;27;20069;-68
2023/12/28 03:56:06;;;;;;;4.63;2.80;;;;;;;;;;5134722;27;20477;-68
2023/12/28 03:58:32;;;;;;;7.47;3.25;;;;;;;;;;5134651;27;20023;-68
2023/12/28 04:00:57;;;;;;;6.50;2.92;;;;;;;;;;5134693;27;20023;-68
2023/12/28 04:03:22;;;;;;;4.90;2.55;;;;;;;;;;5134550;27;20019;-68
2023/12/28 04:05:48;;;;;;;6.82;2.67;;;;;;;;;;5134456;27;20019;-68
2023/12/28 04:08:13;;;;;;;7.63;3.17;;;;;;;;;;5134651;27;20034;-68
2023/12/28 04:10:39;;;;;;;6.95;3.17;;;;;;;;;;5134424;27;20019;-68
2023/12/28 04:13:04;;;;;;;4.85;2.20;;;;;;;;;;5134458;27;20019;-69
2023/12/28 04:15:30;;;;;;;5.03;2.60;;;;;;;;;;5134512;27;20035;-68
2023/12/28 04:17:56;;;;;;;4.85;2.75;;;;;;;;;;5133968;27;20448;-67
2023/12/28 04:20:23;;;;;;;3.83;2.35;;;;;;;;;;5134196;27;20059;-67
2023/12/28 04:22:48;;;;;;;4.55;2.15;;;;;;;;;;5134083;27;20047;-67
2023/12/28 04:25:16;;;;;;;3.55;2.22;;;;;;;;;;5134193;27;20119;-67
2023/12/28 04:27:42;;;;;;;7.57;3.28;;;;;;;;;;5134028;27;20027;-67
2023/12/28 04:30:11;;;;;;;5.28;2.65;;;;;;;;;;5133953;27;20546;-68
2023/12/28 04:32:36;;;;;;;4.28;2.40;;;;;;;;;;5133659;27;20111;-66
2023/12/28 04:35:03;;;;;;;4.50;2.40;;;;;;;;;;5133693;27;20114;-67
2023/12/28 04:37:29;;;;;;;5.78;2.50;;;;;;;;;;5133946;27;20508;-66
2023/12/28 04:39:54;;;;;;;7.95;2.42;;;;;;;;;;5133512;27;20027;-68
2023/12/28 04:42:19;;;;;;;3.88;2.28;;;;;;;;;;5133746;27;20019;-67
2023/12/28 04:44:45;;;;;;;4.20;1.90;;;;;;;;;;5133761;27;20015;-67
2023/12/28 04:47:10;;;;;;;3.92;2.17;;;;;;;;;;5133191;27;20035;-68
2023/12/28 04:49:36;;;;;;;3.40;2.05;;;;;;;;;;5133831;27;20023;-68
2023/12/28 04:52:01;;;;;;;4.80;2.00;;;;;;;;;;5133477;27;20031;-67
2023/12/28 04:54:27;;;;;;;4.20;2.38;;;;;;;;;;5133214;27;20026;-67
2023/12/28 04:56:53;;;;;;;3.58;1.90;;;;;;;;;;5133545;27;20054;-67
2023/12/28 04:59:18;;;;;;;4.72;2.60;;;;;;;;;;5114797;27;20042;-67
2023/12/28 05:01:44;;;;;;;3.53;2.05;;;;;;;;;;5132370;27;20103;-67
2023/12/28 05:04:10;;;;;;;3.53;1.90;;;;;;;;;;5115334;27;20023;-67
2023/12/28 05:06:36;;;;;;;4.07;2.00;;;;;;;;;;5133454;27;20098;-67
2023/12/28 05:09:01;;;;;;;4.22;2.20;;;;;;;;;;5115019;27;20062;-67
2023/12/28 05:11:27;;;;;;;3.97;1.92;;;;;;;;;;5133214;27;20477;-67
2023/12/28 05:13:53;;;;;;;3.67;1.92;;;;;;;;;;5133333;27;20023;-67
2023/12/28 05:16:19;;;;;;;2.60;1.75;;;;;;;;;;5133164;27;20072;-67
2023/12/28 05:18:44;;;;;;;2.83;1.70;;;;;;;;;;5133326;27;20432;-67
2023/12/28 05:21:09;;;;;;;4.22;2.00;;;;;;;;;;5133256;28;20484;-67
2023/12/28 05:23:35;;;;;;;3.50;1.58;;;;;;;;;;5133313;28;20031;-67
2023/12/28 05:26:00;;;;;;;5.82;1.55;;;;;;;;;;5133352;28;20031;-67
2023/12/28 05:28:26;;;;;;;3.13;1.70;;;;;;;;;;5133316;28;20031;-67
2023/12/28 05:30:51;;;;;;;3.15;1.40;;;;;;;;;;5132775;28;20019;-69
2023/12/28 05:33:17;;;;;;;3.65;1.80;;;;;;;;;;5133190;28;20462;-67
2023/12/28 05:35:42;;;;;;;3.85;1.80;;;;;;;;;;5133104;28;20110;-68
2023/12/28 05:38:07;;;;;;;4.05;1.88;;;;;;;;;;5132745;28;20482;-68
2023/12/28 05:40:33;;;;;;;3.53;1.90;;;;;;;;;;5132879;28;20494;-67
2023/12/28 05:42:58;;;;;;;2.67;1.50;;;;;;;;;;5133016;28;20027;-67
2023/12/28 05:45:24;;;;;;;3.38;1.60;;;;;;;;;;5134774;27;20023;-67
2023/12/28 05:47:50;;;;;;;6.60;1.83;;;;;;;;;;5136978;27;20054;-67
2023/12/28 05:50:15;;;;;;;4.32;1.80;;;;;;;;;;5137025;27;20105;-68
2023/12/28 05:52:40;;;;;;;3.08;1.70;;;;;;;;;;5136925;27;20096;-67
2023/12/28 05:55:06;;;;;;;3.72;1.80;;;;;;;;;;5136725;27;20058;-67
2023/12/28 05:57:32;;;;;;;4.05;1.98;;;;;;;;;;5137223;27;20452;-67
2023/12/28 05:59:57;;;;;;;4.57;1.85;;;;;;;;;;5137049;27;20050;-67
2023/12/28 06:02:23;;;;;;;3.03;1.70;;;;;;;;;;5137009;27;20027;-67
2023/12/28 06:04:48;;;;;;;3.42;1.70;;;;;;;;;;5136758;27;20023;-67
2023/12/28 06:07:14;;;;;;;2.47;1.60;;;;;;;;;;5136775;27;20019;-68
2023/12/28 06:09:39;;;;;;;2.78;1.40;;;;;;;;;;5136604;27;20038;-67
2023/12/28 06:12:05;;;;;;;3.95;2.08;;;;;;;;;;5136626;27;20022;-67
2023/12/28 06:14:31;;;;;;;4.78;2.25;;;;;;;;;;5136396;27;20457;-67
2023/12/28 06:16:56;;;;;;;6.55;2.25;;;;;;;;;;5136523;27;20019;-67
2023/12/28 06:19:22;;;;;;;5.45;2.25;;;;;;;;;;5136610;27;20403;-67
2023/12/28 06:21:48;;;;;;;2.78;1.85;;;;;;;;;;5136663;27;20500;-67
2023/12/28 06:24:14;;;;;;;4.63;2.28;;;;;;;;;;5136553;27;20023;-68
2023/12/28 06:26:43;;;;;;;4.40;2.00;;;;;;;;;;5136611;27;20072;-67
2023/12/28 06:29:10;;;;;;;2.43;1.70;;;;;;;;;;5136077;27;20098;-67
2023/12/28 06:31:37;;;;;;;6.30;1.80;;;;;;;;;;5136371;27;20027;-67
2023/12/28 06:34:06;;;;;;;3.85;1.75;;;;;;;;;;5136345;27;20083;-67
2023/12/28 06:36:32;;;;;;;5.07;1.92;;;;;;;;;;5136425;27;20477;-67
2023/12/28 06:38:57;;;;;;;4.82;1.65;;;;;;;;;;5136034;27;20038;-67
2023/12/28 06:41:23;;;;;;;2.40;1.60;;;;;;;;;;5136178;27;20069;-67
2023/12/28 06:43:50;;;;;;;3.08;1.83;;;;;;;;;;5136027;27;20071;-67
2023/12/28 06:46:15;;;;;;;2.72;1.58;;;;;;;;;;5135937;27;20027;-67
2023/12/28 06:48:41;;;;;;;3.28;1.63;;;;;;;;;;5136119;27;20019;-67
2023/12/28 06:51:07;;;;;;;2.40;1.67;;;;;;;;;;5136002;27;20035;-67
2023/12/28 06:53:32;;;;;;;3.30;1.63;;;;;;;;;;5135570;27;20119;-67
2023/12/28 06:55:58;;;;;;;3.10;1.60;;;;;;;;;;5134993;27;20030;-67
2023/12/28 06:58:23;;;;;;;3.40;1.95;;;;;;;;;;5135527;27;20518;-67
2023/12/28 07:00:49;;;;;;;2.75;1.73;;;;;;;;;;5117615;27;20027;-67
2023/12/28 07:03:15;;;;;;;4.32;1.70;;;;;;;;;;5135711;27;20400;-67
2023/12/28 07:05:40;;;;;;;3.53;1.80;;;;;;;;;;5135804;27;20046;-67
2023/12/28 07:08:06;;;;;;;4.60;1.65;;;;;;;;;;5135733;27;20067;-68
2023/12/28 07:10:31;;;;;;;3.35;1.52;;;;;;;;;;5135694;27;20031;-67
2023/12/28 07:12:57;;;;;;;2.95;1.63;;;;;;;;;;5135368;27;20458;-67
2023/12/28 07:15:22;;;;;;;2.40;1.58;;;;;;;;;;5135409;27;20462;-67
2023/12/28 07:17:47;;;;;;;2.42;1.65;;;;;;;;;;5135585;27;20038;-67
2023/12/28 07:20:13;;;;;;;2.42;1.52;;;;;;;;;;5135435;27;20045;-67
2023/12/28 07:22:39;;;;;;;3.75;1.60;;;;;;;;;;5117096;27;20038;-67
2023/12/28 07:25:06;;;;;;;3.92;1.70;;;;;;;;;;5135372;27;20462;-67
2023/12/28 07:27:32;;;;;;;2.28;1.52;;;;;;;;;;5116640;27;20389;-67
2023/12/28 07:29:58;;;;;;;4.15;1.70;;;;;;;;;;5135379;27;20030;-68
2023/12/28 07:32:25;;;;;;;3.67;2.10;;;;;;;;;;5135221;27;20016;-67
2023/12/28 07:34:54;;;;;;;3.22;1.80;;;;;;;;;;5135098;27;20037;-67
2023/12/28 07:37:20;;;;;;;3.75;1.70;;;;;;;;;;5135176;27;20146;-68
2023/12/28 07:39:46;;;;;;;3.55;1.70;;;;;;;;;;5134738;27;20027;-67
2023/12/28 07:42:12;;;;;;;4.57;2.17;;;;;;;;;;5134906;27;20444;-67
2023/12/28 07:44:37;;;;;;;3.65;2.45;;;;;;;;;;5134977;27;20126;-68
2023/12/28 07:47:03;;;;;;;2.67;1.60;;;;;;;;;;5134674;27;20338;-68
2023/12/28 07:49:30;;;;;;;3.58;1.90;;;;;;;;;;5134880;27;20065;-67
2023/12/28 07:51:56;;;;;;;5.43;1.88;;;;;;;;;;5134728;27;20069;-67
2023/12/28 07:54:21;;;;;;;2.85;1.73;;;;;;;;;;5134604;27;20501;-67
2023/12/28 07:56:47;;;;;;;2.42;1.60;;;;;;;;;;5134668;27;20114;-67
2023/12/28 07:59:12;;;;;;;3.13;1.90;;;;;;;;;;5130352;27;20015;-67
2023/12/28 08:01:38;;;;;;;3.63;1.60;;;;;;;;;;5122894;27;20055;-67
2023/12/28 08:04:03;;;;;;;4.25;1.67;;;;;;;;;;5125812;27;20022;-67
2023/12/28 08:06:32;;;;;;;2.65;1.70;;;;;;;;;;5134354;27;20019;-67
2023/12/28 08:08:59;;;;;;;4.10;1.70;;;;;;;;;;5116552;27;20035;-68
2023/12/28 08:11:24;;;;;;;4.93;1.60;;;;;;;;;;5113766;28;20053;-68
2023/12/28 08:13:50;;;;;;;2.63;1.42;;;;;;;;;;5113615;28;20467;-67
2023/12/28 08:16:15;;;;;;;4.15;1.75;;;;;;;;;;5120318;27;20023;-67
2023/12/28 08:18:40;;;;;;;3.50;1.60;;;;;;;;;;5134164;27;20027;-67
2023/12/28 08:21:06;;;;;;;3.08;1.80;;;;;;;;;;5134209;27;20027;-67
2023/12/28 08:23:31;;;;;;;3.38;1.70;;;;;;;;;;5133836;27;20019;-67
2023/12/28 08:25:57;;;;;;;3.53;1.55;;;;;;;;;;5133603;27;20367;-69
2023/12/28 08:28:23;;;;;;;3.28;1.48;;;;;;;;;;5134134;27;20070;-67
2023/12/28 08:30:49;;;;;;;3.70;1.48;;;;;;;;;;5133739;27;20442;-68
2023/12/28 08:33:14;;;;;;;2.38;1.45;;;;;;;;;;5133723;27;20019;-67
2023/12/28 08:35:39;;;;;;;2.60;1.40;;;;;;;;;;5133889;27;20030;-68
2023/12/28 08:38:06;;;;;;;2.05;1.35;;;;;;;;;;5133625;27;20022;-67
2023/12/28 08:40:32;;;;;;;3.53;1.52;;;;;;;;;;5133455;27;20031;-67
2023/12/28 08:42:57;;;;;;;3.40;1.50;;;;;;;;;;5133789;27;20042;-68
2023/12/28 08:45:23;;;;;;;2.58;1.50;;;;;;;;;;5133547;27;20038;-68
2023/12/28 08:47:48;;;;;;;4.30;1.75;;;;;;;;;;5133521;27;20015;-68
2023/12/28 08:50:14;;;;;;;2.60;1.58;;;;;;;;;;5133607;27;20039;-67
2023/12/28 08:52:40;;;;;;;5.10;2.53;;;;;;;;;;5133292;27;20126;-68
2023/12/28 08:55:08;;;;;;;4.93;1.58;;;;;;;;;;5133201;27;20078;-68
2023/12/28 08:57:35;;;;;;;4.40;1.50;;;;;;;;;;5133485;27;20467;-68
2023/12/28 09:00:02;;;;;;;4.32;1.52;;;;;;;;;;5115542;27;20023;-67
2023/12/28 09:02:28;;;;;;;3.13;1.58;;;;;;;;;;5133308;27;20023;-68
2023/12/28 09:04:54;;;;;;;2.78;1.63;;;;;;;;;;5133079;27;20422;-67
2023/12/28 09:07:19;;;;;;;4.70;1.73;;;;;;;;;;5133185;27;20046;-68
2023/12/28 09:09:45;;;;;;;3.53;1.90;;;;;;;;;;5132992;27;20059;-68
2023/12/28 09:12:11;;;;;;;3.38;1.70;;;;;;;;;;5133318;27;20084;-68
2023/12/28 09:14:37;;;;;;;5.50;2.08;;;;;;;;;;5132945;27;20023;-67
2023/12/28 09:17:03;;;;;;;3.38;1.98;;;;;;;;;;5133219;27;20019;-68
2023/12/28 09:19:28;;;;;;;3.63;2.05;;;;;;;;;;5132145;27;20474;-68
2023/12/28 09:21:54;;;;;;;2.70;1.67;;;;;;;;;;5132949;27;20027;-66
2023/12/28 09:24:19;;;;;;;3.13;1.40;;;;;;;;;;5132758;28;20016;-67
2023/12/28 09:26:45;;;;;;;2.78;1.77;;;;;;;;;;5132826;28;20030;-67
2023/12/28 09:29:10;;;;;;;3.25;2.05;;;;;;;;;;5132955;28;20028;-67
2023/12/28 09:31:37;;;;;;;4.95;1.80;;;;;;;;;;5132913;28;20461;-67
2023/12/28 09:34:04;;;;;;;3.90;1.60;;;;;;;;;;5132961;28;20028;-67
2023/12/28 09:36:30;;;;;;;2.13;1.38;;;;;;;;;;5145293;27;20095;-66
2023/12/28 09:38:55;;;;;;;2.83;1.50;;;;;;;;;;5140917;27;20059;-67
2023/12/28 09:41:25;;;;;;;3.13;1.67;;;;;;;;;;5132857;28;20342;-68
2023/12/28 09:43:54;;;;;;;2.50;1.60;;;;;;;;;;5132806;28;20063;-67
2023/12/28 09:46:20;;;;;;;2.75;1.65;;;;;;;;;;5132677;28;20466;-67
2023/12/28 09:48:46;;;;;;;3.20;1.70;;;;;;;;;;5132555;28;20035;-68
2023/12/28 09:51:12;;;;;;;4.60;1.88;;;;;;;;;;5132541;28;20119;-67
2023/12/28 09:53:38;;;;;;;1.75;1.20;;;;;;;;;;5132284;28;20114;-68
2023/12/28 09:56:05;;;;;;;2.60;1.40;;;;;;;;;;5132867;28;20076;-67
2023/12/28 09:58:35;;;;;;;2.58;1.45;;;;;;;;;;5132471;28;20027;-68
2023/12/28 10:01:01;;;;;;;2.30;1.58;;;;;;;;;;5132921;28;20026;-67
2023/12/28 10:03:26;;;;;;;3.88;1.50;;;;;;;;;;5132664;28;20088;-67
2023/12/28 10:05:52;;;;;;;2.85;1.55;;;;;;;;;;5132451;28;20481;-68
2023/12/28 10:08:17;;;;;;;2.85;1.73;;;;;;;;;;5132528;28;20489;-67
2023/12/28 10:10:50;;;;;;;2.30;1.42;;;;;;;;;;5132534;28;20015;-67
2023/12/28 10:13:16;;;;;;;2.75;1.40;;;;;;;;;;5132579;28;20057;-68
2023/12/28 10:15:45;;;;;;;5.80;1.80;;;;;;;;;;5132524;28;20066;-68
2023/12/28 10:18:11;;;;;;;5.33;1.53;;;;;;;;;;5132529;28;20027;-67
2023/12/28 10:20:38;;;;;;;2.72;1.45;;;;;;;;;;5132281;28;20574;-67
2023/12/28 10:23:03;;;;;;;3.67;1.30;;;;;;;;;;5132353;28;20388;-68
2023/12/28 10:25:31;;;;;;;2.72;1.80;;;;;;;;;;5132045;28;20030;-67
2023/12/28 10:27:57;;;;;;;3.70;1.50;;;;;;;;;;5130929;28;20027;-68
2023/12/28 10:30:23;;;;;;;2.58;1.27;;;;;;;;;;5132324;27;20496;-67
2023/12/28 10:32:49;;;;;;;2.72;1.60;;;;;;;;;;5135915;27;20053;-68
2023/12/28 10:35:14;;;;;;;7.57;1.50;;;;;;;;;;5135734;27;20027;-67
2023/12/28 10:37:41;;;;;;;4.22;1.52;;;;;;;;;;5135816;27;20485;-66
2023/12/28 10:40:10;;;;;;;3.80;1.50;;;;;;;;;;5135809;27;20027;-67
2023/12/28 10:42:51;;;;;;;2.88;1.40;;;;;;;;;;5135867;27;20124;-67
2023/12/28 10:45:20;;;;;;;2.90;1.52;;;;;;;;;;5135407;27;20051;-67
2023/12/28 10:47:55;;;;;;;2.30;1.38;;;;;;;;;;5135558;27;20485;-67
2023/12/28 10:50:22;;;;;;;3.67;1.55;;;;;;;;;;5135546;27;20034;-67
2023/12/28 10:52:52;;;;;;;3.50;1.55;;;;;;;;;;5135374;27;20097;-67
2023/12/28 10:55:38;;;;;;;3.65;1.70;;;;;;;;;;5135661;27;20083;-67
2023/12/28 10:58:09;;;;;;;6.45;1.38;;;;;;;;;;5135830;27;20027;-67
2023/12/28 11:00:38;;;;;;;4.07;1.40;;;;;;;;;;5135602;27;20110;-66
2023/12/28 11:03:08;;;;;;;1.95;1.17;;;;;;;;;;5135447;27;20019;-68
2023/12/28 11:05:35;;;;;;;3.53;1.60;;;;;;;;;;5135247;27;20030;-67
2023/12/28 11:08:03;;;;;;;4.15;1.70;;;;;;;;;;5135457;27;20015;-67
2023/12/28 11:10:31;;;;;;;3.15;1.25;;;;;;;;;;5135450;27;20026;-66
2023/12/28 11:12:59;;;;;;;4.32;1.60;;;;;;;;;;5115010;27;20424;-67
2023/12/28 11:15:26;;;;;;;2.90;1.33;;;;;;;;;;5114706;28;20031;-67
2023/12/28 11:17:52;;;;;;;4.43;1.50;;;;;;;;;;5114688;27;20035;-67
2023/12/28 11:20:18;;;;;;;3.38;1.45;;;;;;;;;;5114387;28;20024;-67
2023/12/28 11:22:44;;;;;;;4.00;1.60;;;;;;;;;;5114532;28;20027;-67
2023/12/28 11:25:18;;;;;;;2.70;1.73;;;;;;;;;;5114569;27;20028;-66
2023/12/28 11:27:45;;;;;;;3.95;1.35;;;;;;;;;;5114357;28;20452;-67
2023/12/28 11:30:12;;;;;;;5.75;2.13;;;;;;;;;;5117352;27;20042;-67
2023/12/28 11:32:38;;;;;;;4.40;2.05;;;;;;;;;;5134879;27;20036;-66
2023/12/28 11:35:09;;;;;;;5.15;1.70;;;;;;;;;;5134816;27;20030;-67
2023/12/28 11:37:36;;;;;;;6.07;1.80;;;;;;;;;;5134890;27;20026;-67
2023/12/28 11:40:16;;;;;;;6.35;1.75;;;;;;;;;;5134907;27;20027;-67
2023/12/28 11:42:51;;;;;;;4.63;1.42;;;;;;;;;;5133819;27;20035;-67
2023/12/28 11:45:18;;;;;;;2.67;1.23;;;;;;;;;;5134350;27;20066;-67
2023/12/28 11:47:44;;;;;;;4.80;1.88;;;;;;;;;;5134349;27;20062;-66
2023/12/28 11:50:10;;;;;;;4.57;1.80;;;;;;;;;;5134694;27;20023;-67
2023/12/28 11:52:36;;;;;;;2.50;1.70;;;;;;;;;;5134161;27;20122;-67
2023/12/28 11:55:02;;;;;;;5.63;1.73;;;;;;;;;;5134531;27;20027;-66
2023/12/28 11:57:28;;;;;;;3.97;1.80;;;;;;;;;;5134560;27;20051;-67
2023/12/28 11:59:57;;;;;;;2.53;1.20;;;;;;;;;;5134778;27;20026;-67
2023/12/28 12:02:22;;;;;;;2.97;1.38;;;;;;;;;;5134311;27;20027;-67
2023/12/28 12:04:48;;;;;;;3.28;1.48;;;;;;;;;;5134257;27;20397;-67
2023/12/28 12:07:13;;;;;;;3.22;1.45;;;;;;;;;;5134245;27;20023;-67
2023/12/28 12:09:39;;;;;;;4.00;1.30;;;;;;;;;;5134359;27;20072;-68
2023/12/28 12:12:06;;;;;;;6.35;1.65;;;;;;;;;;5134473;27;20027;-69
2023/12/28 12:14:32;;;;;;;4.97;1.38;;;;;;;;;;5133928;27;20168;-67
2023/12/28 12:16:58;;;;;;;2.85;1.17;;;;;;;;;;5134059;27;20058;-68
2023/12/28 12:19:25;;;;;;;4.57;1.23;;;;;;;;;;5134243;27;20030;-67
2023/12/28 12:21:55;;;;;;;5.03;1.33;;;;;;;;;;5134113;27;20045;-67
2023/12/28 12:24:21;;;;;;;2.50;1.48;;;;;;;;;;5133960;27;20102;-66
2023/12/28 12:26:47;;;;;;;4.03;1.60;;;;;;;;;;5133845;27;20023;-67
2023/12/28 12:29:14;;;;;;;5.25;1.20;;;;;;;;;;5134005;27;20090;-67
2023/12/28 12:31:41;;;;;;;2.80;1.35;;;;;;;;;;5133596;27;20493;-67
2023/12/28 12:34:08;;;;;;;4.68;1.50;;;;;;;;;;5133937;27;20092;-67
2023/12/28 12:36:34;;;;;;;3.58;1.70;;;;;;;;;;5133542;27;20101;-67
2023/12/28 12:38:59;;;;;;;3.75;1.52;;;;;;;;;;5133396;27;20447;-67
2023/12/28 12:41:26;;;;;;;4.03;1.88;;;;;;;;;;5133855;27;20023;-67
2023/12/28 12:43:52;;;;;;;2.70;1.23;;;;;;;;;;5133556;27;20132;-67
2023/12/28 12:46:17;;;;;;;3.80;1.60;;;;;;;;;;5133065;27;20066;-67
2023/12/28 12:48:43;;;;;;;2.78;1.40;;;;;;;;;;5133334;27;20529;-67
2023/12/28 12:51:08;;;;;;;2.30;1.40;;;;;;;;;;5133618;27;20019;-68
2023/12/28 12:53:34;;;;;;;5.75;1.90;;;;;;;;;;5133262;27;20046;-67
2023/12/28 12:56:00;;;;;;;6.55;2.08;;;;;;;;;;5133308;27;20105;-67
2023/12/28 12:58:27;;;;;;;5.32;1.60;;;;;;;;;;5133573;27;20051;-67
2023/12/28 13:00:52;;;;;;;4.95;2.28;;;;;;;;;;5133093;27;20031;-67
2023/12/28 13:03:20;;;;;;;5.57;2.42;;;;;;;;;;5133195;27;20038;-68
2023/12/28 13:05:45;;;;;;;3.53;1.85;;;;;;;;;;5133347;27;20039;-68
2023/12/28 13:08:11;;;;;;;4.72;1.60;;;;;;;;;;5133244;27;20034;-68
2023/12/28 13:10:36;;;;;;;4.47;1.67;;;;;;;;;;5133142;27;20023;-68
2023/12/28 13:13:02;;;;;;;11.77;2.00;;;;;;;;;;5133228;27;20064;-68
2023/12/28 13:15:28;;;;;;;4.47;1.38;;;;;;;;;;5132865;27;20068;-68
2023/12/28 13:17:53;;;;;;;2.92;1.10;;;;;;;;;;5115090;28;20038;-69
2023/12/28 13:20:19;;;;;;;5.28;1.70;;;;;;;;;;5133054;27;20039;-66
2023/12/28 13:22:44;;;;;;;7.32;1.75;;;;;;;;;;5132862;27;20084;-65
2023/12/28 13:25:09;;;;;;;10.45;1.73;;;;;;;;;;5132957;28;20070;-67
2023/12/28 13:27:35;;;;;;;4.72;1.65;;;;;;;;;;5133283;28;20373;-67
2023/12/28 13:30:00;;;;;;;5.85;1.63;;;;;;;;;;5132878;28;20446;-67
2023/12/28 13:32:26;;;;;;;3.92;1.67;;;;;;;;;;5133114;28;20027;-67
2023/12/28 13:34:51;;;;;;;2.58;1.15;;;;;;;;;;5132838;28;20023;-66
2023/12/28 13:37:17;;;;;;;3.30;1.30;;;;;;;;;;5132940;28;20038;-66
2023/12/28 13:39:43;;;;;;;3.72;1.40;;;;;;;;;;5132591;28;20488;-67
2023/12/28 13:42:09;;;;;;;3.47;1.50;;;;;;;;;;5119813;28;20438;-67
2023/12/28 13:44:37;;;;;;;4.65;1.60;;;;;;;;;;5118009;28;20152;-65
2023/12/28 13:47:04;;;;;;;3.55;1.30;;;;;;;;;;5132892;28;20035;-65
2023/12/28 13:49:30;;;;;;;4.80;1.67;;;;;;;;;;5132979;28;20063;-65
2023/12/28 13:51:55;;;;;;;5.20;1.50;;;;;;;;;;5133121;28;20103;-67
2023/12/28 13:54:21;;;;;;;4.32;1.50;;;;;;;;;;5132781;28;20054;-67
2023/12/28 13:56:47;;;;;;;6.55;1.33;;;;;;;;;;5133089;28;20026;-68
2023/12/28 13:59:13;;;;;;;2.55;1.40;;;;;;;;;;5132639;28;20023;-66
2023/12/28 14:01:39;;;;;;;6.15;1.80;;;;;;;;;;5132964;28;20034;-67
2023/12/28 14:04:04;;;;;;;4.47;2.08;;;;;;;;;;5132853;28;20052;-67
2023/12/28 14:06:30;;;;;;;5.80;1.88;;;;;;;;;;5135227;27;20080;-66
2023/12/28 14:08:57;;;;;;;2.75;1.30;;;;;;;;;;5136085;27;20034;-67
2023/12/28 14:11:23;;;;;;;5.80;1.40;;;;;;;;;;5136700;27;20045;-66
2023/12/28 14:13:48;;;;;;;5.75;1.60;;;;;;;;;;5136487;27;20027;-66
2023/12/28 14:16:14;;;;;;;4.72;1.70;;;;;;;;;;5136763;27;20055;-67
2023/12/28 14:18:41;;;;;;;6.40;1.50;;;;;;;;;;5136058;27;20027;-67
2023/12/28 14:21:08;;;;;;;3.83;1.65;;;;;;;;;;5134829;27;20418;-67
2023/12/28 14:23:34;;;;;;;4.40;1.30;;;;;;;;;;5134678;27;20019;-67
2023/12/28 14:26:02;;;;;;;3.25;1.38;;;;;;;;;;5134752;27;20443;-67
2023/12/28 14:28:31;;;;;;;4.55;1.60;;;;;;;;;;5133233;27;20412;-67
2023/12/28 14:30:57;;;;;;;4.80;1.48;;;;;;;;;;5134436;27;20031;-67
2023/12/28 14:33:23;;;;;;;5.18;1.50;;;;;;;;;;5134583;27;20095;-67
2023/12/28 14:35:49;;;;;;;2.53;1.50;;;;;;;;;;5136365;27;20079;-67
2023/12/28 14:38:14;;;;;;;6.50;2.22;;;;;;;;;;5136161;27;20026;-67